createdAt,value
2023-06-14T00:00:15.051Z,8.02
2023-06-14T00:02:44.255Z,8.30
2023-06-14T00:05:14.052Z,7.97
2023-06-14T00:07:50.399Z,8.30
2023-06-14T00:10:19.560Z,8.80
2023-06-14T00:12:48.265Z,8.68
2023-06-14T00:15:17.155Z,8.98
2023-06-14T00:17:49.382Z,8.55
2023-06-14T00:20:18.744Z,8.38
2023-06-14T00:22:47.785Z,8.68
2023-06-14T00:25:28.535Z,8.85
2023-06-14T00:27:59.632Z,8.53
2023-06-14T00:30:32.584Z,8.85
2023-06-14T00:33:01.795Z,11.60
2023-06-14T00:35:30.637Z,9.30
2023-06-14T00:37:59.612Z,9.13
2023-06-14T00:40:28.344Z,9.88
2023-06-14T00:42:57.225Z,10.82
2023-06-14T00:45:25.846Z,9.27
2023-06-14T00:47:57.624Z,10.30
2023-06-14T00:50:26.913Z,9.77
2023-06-14T00:52:55.828Z,9.93
2023-06-14T00:55:26.798Z,10.20
2023-06-14T00:57:57.984Z,10.90
2023-06-14T01:00:27.081Z,10.07
2023-06-14T01:02:57.355Z,11.45
2023-06-14T01:05:27.494Z,9.15
2023-06-14T01:08:23.272Z,19.23
2023-06-14T01:11:06.359Z,35.05
2023-06-14T01:13:38.626Z,36.33
2023-06-14T01:16:10.177Z,27.55
2023-06-14T01:18:39.530Z,18.97
2023-06-14T01:21:08.217Z,14.80
2023-06-14T01:23:37.075Z,13.20
2023-06-14T01:26:06.922Z,13.85
2023-06-14T01:28:37.671Z,12.07
2023-06-14T01:31:08.326Z,11.60
2023-06-14T01:33:38.637Z,10.52
2023-06-14T01:36:10.438Z,10.63
2023-06-14T01:38:40.209Z,10.82
2023-06-14T01:41:09.169Z,10.25
2023-06-14T01:43:39.461Z,10.50
2023-06-14T01:46:10.484Z,8.73
2023-06-14T01:48:39.851Z,9.57
2023-06-14T01:51:08.543Z,8.65
2023-06-14T01:53:38.226Z,9.48
2023-06-14T01:56:07.207Z,7.88
2023-06-14T01:58:36.027Z,11.07
2023-06-14T02:01:04.952Z,10.98
2023-06-14T02:03:34.544Z,10.38
2023-06-14T02:06:03.768Z,9.82
2023-06-14T02:08:33.074Z,9.73
2023-06-14T02:11:02.795Z,9.55
2023-06-14T02:13:31.720Z,11.35
2023-06-14T02:16:01.827Z,11.55
2023-06-14T02:18:30.925Z,12.15
2023-06-14T02:20:59.672Z,11.95
2023-06-14T02:23:28.840Z,9.98
2023-06-14T02:25:58.346Z,8.88
2023-06-14T02:28:28.861Z,8.73
2023-06-14T02:30:57.885Z,8.40
2023-06-14T02:33:27.237Z,9.52
2023-06-14T02:35:56.270Z,7.88
2023-06-14T02:38:24.926Z,7.60
2023-06-14T02:40:53.930Z,7.63
2023-06-14T02:43:22.720Z,7.63
2023-06-14T02:45:51.897Z,16.38
2023-06-14T02:48:20.640Z,6.68
2023-06-14T02:50:49.986Z,6.75
2023-06-14T02:53:19.185Z,7.10
2023-06-14T02:55:48.913Z,9.13
2023-06-14T02:58:18.284Z,8.13
2023-06-14T03:00:47.370Z,8.52
2023-06-14T03:03:18.178Z,8.38
2023-06-14T03:05:56.611Z,8.70
2023-06-14T03:08:31.047Z,7.40
2023-06-14T03:11:04.189Z,10.40
2023-06-14T03:13:35.841Z,7.83
2023-06-14T03:16:06.758Z,7.93
2023-06-14T03:18:39.816Z,9.05
2023-06-14T03:21:10.858Z,8.05
2023-06-14T03:23:44.302Z,7.90
2023-06-14T03:26:19.707Z,7.07
2023-06-14T03:28:54.305Z,7.97
2023-06-14T03:31:25.828Z,9.10
2023-06-14T03:33:55.476Z,10.65
2023-06-14T03:36:24.874Z,6.72
2023-06-14T03:38:53.731Z,7.07
2023-06-14T03:41:22.590Z,7.63
2023-06-14T03:43:53.044Z,8.82
2023-06-14T03:46:21.886Z,8.90
2023-06-14T03:48:51.198Z,8.13
2023-06-14T03:51:20.830Z,7.25
2023-06-14T03:54:06.039Z,8.85
2023-06-14T03:56:39.671Z,8.52
2023-06-14T04:01:47.932Z,8.23
2023-06-14T04:04:18.690Z,9.90
2023-06-14T04:06:50.149Z,10.18
2023-06-14T04:09:20.896Z,7.75
2023-06-14T04:11:49.653Z,10.52
2023-06-14T04:14:18.315Z,9.45
2023-06-14T04:16:48.716Z,11.82
2023-06-14T04:19:19.730Z,7.50
2023-06-14T04:21:48.640Z,8.80
2023-06-14T04:24:19.032Z,10.23
2023-06-14T04:26:53.718Z,7.57
2023-06-14T04:29:23.328Z,9.50
2023-06-14T04:32:04.134Z,13.50
2023-06-14T04:34:34.712Z,9.48
2023-06-14T04:37:04.284Z,10.13
2023-06-14T04:39:36.859Z,8.70
2023-06-14T04:42:06.781Z,8.18
2023-06-14T04:44:36.762Z,8.82
2023-06-14T04:47:08.802Z,7.90
2023-06-14T04:49:38.163Z,8.17
2023-06-14T04:52:07.593Z,8.23
2023-06-14T04:54:41.312Z,8.98
2023-06-14T04:59:47.755Z,9.65
2023-06-14T05:02:16.878Z,9.13
2023-06-14T05:04:45.628Z,9.15
2023-06-14T05:07:16.124Z,8.15
2023-06-14T05:09:48.599Z,9.75
2023-06-14T05:12:21.529Z,8.77
2023-06-14T05:14:52.239Z,9.57
2023-06-14T05:17:23.216Z,10.65
2023-06-14T05:19:52.584Z,8.77
2023-06-14T05:22:21.370Z,9.68
2023-06-14T05:24:50.802Z,7.97
2023-06-14T05:27:19.516Z,9.77
2023-06-14T05:29:48.448Z,8.13
2023-06-14T05:32:17.190Z,7.85
2023-06-14T05:34:46.595Z,8.82
2023-06-14T05:37:15.397Z,9.02
2023-06-14T05:39:44.462Z,8.95
2023-06-14T05:42:13.424Z,9.40
2023-06-14T05:44:42.667Z,11.10
2023-06-14T05:47:13.795Z,10.45
2023-06-14T05:49:43.629Z,9.52
2023-06-14T05:52:13.702Z,10.00
2023-06-14T05:54:43.359Z,10.85
2023-06-14T05:57:13.977Z,9.15
2023-06-14T06:00:08.006Z,8.05
2023-06-14T06:02:41.023Z,8.43
2023-06-14T06:05:10.598Z,8.63
2023-06-14T06:07:39.955Z,9.35
2023-06-14T06:10:09.894Z,8.15
2023-06-14T06:12:38.778Z,9.60
2023-06-14T06:15:11.542Z,7.82
2023-06-14T06:17:54.870Z,7.78
2023-06-14T06:20:33.598Z,7.97
2023-06-14T06:23:02.982Z,7.55
2023-06-14T06:25:34.366Z,7.13
2023-06-14T06:28:07.138Z,7.90
2023-06-14T06:30:38.037Z,8.23
2023-06-14T06:33:07.982Z,7.47
2023-06-14T06:35:37.098Z,9.75
2023-06-14T06:38:17.055Z,8.13
2023-06-14T06:41:07.800Z,8.32
2023-06-14T06:43:38.029Z,7.55
2023-06-14T06:46:22.181Z,6.28
2023-06-14T06:48:51.962Z,6.05
2023-06-14T06:51:21.013Z,6.88
2023-06-14T06:53:56.089Z,5.97
2023-06-14T06:56:26.324Z,7.03
2023-06-14T06:58:55.520Z,7.15
2023-06-14T07:01:26.392Z,7.00
2023-06-14T07:03:55.623Z,6.97
2023-06-14T07:06:26.650Z,6.82
2023-06-14T07:09:03.353Z,5.60
2023-06-14T07:11:34.682Z,5.47
2023-06-14T07:14:03.927Z,6.32
2023-06-14T07:16:32.992Z,5.82
2023-06-14T07:19:04.249Z,6.18
2023-06-14T07:21:33.816Z,5.70
2023-06-14T07:24:02.594Z,5.68
2023-06-14T07:26:31.905Z,5.80
2023-06-14T07:29:00.601Z,6.43
2023-06-14T07:31:33.516Z,8.98
2023-06-14T07:34:04.167Z,9.60
2023-06-14T07:36:33.220Z,18.30
2023-06-14T07:39:05.495Z,17.15
2023-06-14T07:41:35.556Z,12.90
2023-06-14T07:44:05.686Z,10.40
2023-06-14T07:46:36.705Z,7.60
2023-06-14T07:49:09.233Z,8.68
2023-06-14T07:51:38.446Z,5.95
2023-06-14T07:54:09.195Z,9.35
2023-06-14T07:56:38.400Z,8.53
2023-06-14T07:59:08.736Z,6.43
2023-06-14T08:01:38.117Z,5.90
2023-06-14T08:04:07.113Z,6.28
2023-06-14T08:06:36.153Z,5.63
2023-06-14T08:09:04.944Z,8.30
2023-06-14T08:11:35.556Z,6.53
2023-06-14T08:14:05.817Z,9.10
2023-06-14T08:16:35.063Z,6.05
2023-06-14T08:19:04.707Z,7.03
2023-06-14T08:21:35.420Z,6.35
2023-06-14T08:24:05.843Z,5.57
2023-06-14T08:26:35.261Z,5.47
2023-06-14T08:29:11.457Z,6.93
2023-06-14T08:31:40.613Z,6.00
2023-06-14T08:34:09.686Z,6.65
2023-06-14T08:36:38.957Z,5.30
2023-06-14T08:39:08.100Z,6.03
2023-06-14T08:41:38.344Z,5.72
2023-06-14T08:44:09.479Z,8.57
2023-06-14T08:46:39.509Z,5.05
2023-06-14T08:49:10.757Z,5.53
2023-06-14T08:51:42.530Z,5.32
2023-06-14T08:56:43.542Z,6.13
2023-06-14T08:59:13.593Z,8.50
2023-06-14T09:01:49.295Z,5.60
2023-06-14T09:04:31.606Z,5.30
2023-06-14T09:07:01.167Z,5.30
2023-06-14T09:09:29.863Z,6.38
2023-06-14T09:12:08.590Z,5.50
2023-06-14T09:14:40.383Z,7.18
2023-06-14T09:17:09.476Z,7.28
2023-06-14T09:19:38.312Z,6.38
2023-06-14T09:22:09.742Z,5.43
2023-06-14T09:24:39.749Z,6.50
2023-06-14T09:27:08.621Z,8.52
2023-06-14T09:29:38.895Z,5.93
2023-06-14T09:32:08.605Z,5.88
2023-06-14T09:34:38.220Z,7.03
2023-06-14T09:37:07.532Z,12.98
2023-06-14T09:39:37.778Z,25.38
2023-06-14T09:42:22.705Z,15.38
2023-06-14T09:44:54.118Z,31.65
2023-06-14T09:49:57.240Z,16.17
2023-06-14T09:52:28.885Z,11.43
2023-06-14T09:54:58.260Z,10.60
2023-06-14T09:57:31.304Z,20.30
2023-06-14T10:00:04.339Z,11.10
2023-06-14T10:02:44.787Z,48.33
2023-06-14T10:05:18.518Z,10.07
2023-06-14T10:08:17.753Z,9.35
2023-06-14T10:10:47.990Z,20.00
2023-06-14T10:16:02.760Z,11.35
2023-06-14T10:18:46.397Z,40.70
2023-06-14T10:21:57.886Z,13.07
2023-06-14T10:24:47.234Z,14.07
2023-06-14T10:27:33.375Z,12.85
2023-06-14T10:30:12.536Z,17.20
2023-06-14T10:33:12.906Z,11.65
2023-06-14T10:35:42.657Z,7.60
2023-06-14T10:38:18.414Z,6.78
2023-06-14T10:40:56.702Z,7.97
2023-06-14T10:43:26.572Z,7.45
2023-06-14T10:46:25.226Z,5.93
2023-06-14T10:49:01.161Z,7.63
2023-06-14T10:51:47.174Z,6.20
2023-06-14T10:54:16.349Z,5.95
2023-06-14T10:56:51.991Z,6.68
2023-06-14T10:59:22.371Z,6.60
2023-06-14T11:02:00.300Z,7.18
2023-06-14T11:04:48.928Z,6.43
2023-06-14T11:07:48.918Z,6.32
2023-06-14T11:10:39.724Z,8.27
2023-06-14T11:13:14.877Z,6.38
2023-06-14T11:16:00.392Z,7.55
2023-06-14T11:18:31.271Z,8.85
2023-06-14T11:21:00.310Z,6.68
2023-06-14T11:23:29.061Z,6.70
2023-06-14T11:25:59.872Z,5.95
2023-06-14T11:28:39.907Z,7.38
2023-06-14T11:31:12.207Z,5.93
2023-06-14T11:33:41.551Z,6.72
2023-06-14T11:36:10.759Z,5.35
2023-06-14T11:38:39.947Z,6.50
2023-06-14T11:41:09.184Z,5.55
2023-06-14T11:43:39.409Z,8.20
2023-06-14T11:46:17.287Z,6.03
2023-06-14T11:48:47.372Z,6.22
2023-06-14T11:51:35.139Z,6.65
2023-06-14T11:54:06.003Z,5.65
2023-06-14T11:56:34.821Z,5.93
2023-06-14T11:59:07.685Z,5.97
2023-06-14T12:01:43.220Z,6.60
2023-06-14T12:04:17.046Z,7.20
2023-06-14T12:06:45.959Z,7.53
2023-06-14T12:09:19.479Z,7.60
2023-06-14T12:11:48.452Z,11.65
2023-06-14T12:14:17.426Z,8.60
2023-06-14T12:16:46.654Z,7.03
2023-06-14T12:19:17.540Z,6.15
2023-06-14T12:21:53.074Z,7.50
2023-06-14T12:24:22.046Z,5.22
2023-06-14T12:26:50.675Z,6.53
2023-06-14T12:29:21.763Z,5.35
2023-06-14T12:31:50.512Z,7.57
2023-06-14T12:34:19.259Z,5.63
2023-06-14T12:36:48.559Z,5.80
2023-06-14T12:39:17.237Z,5.60
2023-06-14T12:41:46.094Z,5.53
2023-06-14T12:44:15.609Z,5.22
2023-06-14T12:46:45.726Z,6.57
2023-06-14T12:49:15.745Z,7.43
2023-06-14T12:51:44.409Z,5.20
2023-06-14T12:54:15.850Z,6.13
2023-06-14T12:56:47.659Z,5.78
2023-06-14T12:59:16.311Z,5.82
2023-06-14T13:01:46.936Z,6.25
2023-06-14T13:04:16.022Z,5.18
2023-06-14T13:06:44.689Z,6.63
2023-06-14T13:09:14.841Z,6.55
2023-06-14T13:11:47.847Z,7.80
2023-06-14T13:14:25.552Z,4.60
2023-06-14T13:16:55.358Z,5.82
2023-06-14T13:19:24.249Z,5.75
2023-06-14T13:21:53.041Z,5.28
2023-06-14T13:24:21.767Z,7.15
2023-06-14T13:26:50.625Z,9.13
2023-06-14T13:29:19.254Z,5.57
2023-06-14T13:31:48.564Z,4.45
2023-06-14T13:34:17.228Z,5.65
2023-06-14T13:36:46.078Z,4.63
2023-06-14T13:39:14.687Z,5.68
2023-06-14T13:41:43.466Z,4.88
2023-06-14T13:44:17.178Z,6.22
2023-06-14T13:46:47.129Z,5.85
2023-06-14T13:49:15.746Z,5.70
2023-06-14T13:51:45.548Z,5.65
2023-06-14T13:54:17.528Z,5.55
2023-06-14T13:56:46.673Z,5.15
2023-06-14T13:59:15.593Z,5.00
2023-06-14T14:01:44.383Z,6.38
2023-06-14T14:04:13.530Z,7.20
2023-06-14T14:06:42.330Z,6.13
2023-06-14T14:09:11.584Z,13.57
2023-06-14T14:11:41.865Z,6.72
2023-06-14T14:14:11.974Z,5.65
2023-06-14T14:16:40.611Z,4.97
2023-06-14T14:19:09.717Z,3.55
2023-06-14T14:21:38.370Z,4.78
2023-06-14T14:24:07.703Z,5.22
2023-06-14T14:26:36.431Z,3.63
2023-06-14T14:29:05.258Z,4.13
2023-06-14T14:31:34.246Z,3.75
2023-06-14T14:34:03.131Z,9.25
2023-06-14T14:36:31.744Z,4.25
2023-06-14T14:39:00.558Z,4.78
2023-06-14T14:41:30.356Z,4.35
2023-06-14T14:44:00.503Z,4.80
2023-06-14T14:46:30.459Z,4.20
2023-06-14T14:48:59.179Z,4.03
2023-06-14T14:51:28.099Z,5.45
2023-06-14T14:53:56.856Z,6.70
2023-06-14T14:56:25.887Z,6.18
2023-06-14T14:58:54.853Z,4.65
2023-06-14T15:01:23.787Z,5.18
2023-06-14T15:03:59.169Z,5.68
2023-06-14T15:06:28.904Z,4.45
2023-06-14T15:08:57.907Z,4.10
2023-06-14T15:11:27.672Z,3.75
2023-06-14T15:13:56.892Z,3.28
2023-06-14T15:16:26.032Z,6.00
2023-06-14T15:18:57.612Z,3.80
2023-06-14T15:21:26.585Z,3.35
2023-06-14T15:23:55.225Z,3.67
2023-06-14T15:26:27.596Z,3.40
2023-06-14T15:28:56.449Z,3.92
2023-06-14T15:31:29.963Z,3.85
2023-06-14T15:33:58.961Z,3.80
2023-06-14T15:36:27.755Z,4.65
2023-06-14T15:38:56.786Z,4.75
2023-06-14T15:41:25.417Z,3.72
2023-06-14T15:43:54.230Z,4.53
2023-06-14T15:46:24.760Z,5.25
2023-06-14T15:48:53.604Z,4.93
2023-06-14T15:51:22.929Z,4.55
2023-06-14T15:53:51.947Z,4.47
2023-06-14T15:56:20.655Z,4.10
2023-06-14T15:58:52.590Z,4.10
2023-06-14T16:03:50.080Z,4.15
2023-06-14T16:06:18.975Z,3.95
2023-06-14T16:08:47.881Z,4.28
2023-06-14T16:11:17.124Z,3.90
2023-06-14T16:13:45.824Z,3.42
2023-06-14T16:16:15.301Z,3.70
2023-06-14T16:18:44.181Z,4.32
2023-06-14T16:21:13.679Z,3.78
2023-06-14T16:23:42.741Z,4.38
2023-06-14T16:26:14.546Z,3.78
2023-06-14T16:28:46.661Z,3.67
2023-06-14T16:31:23.990Z,4.50
2023-06-14T16:33:56.346Z,3.70
2023-06-14T16:38:53.897Z,3.58
2023-06-14T16:41:22.718Z,4.40
2023-06-14T16:43:51.352Z,7.35
2023-06-14T16:46:31.961Z,4.47
2023-06-14T16:49:02.454Z,4.50
2023-06-14T16:51:31.271Z,4.95
2023-06-14T16:54:00.257Z,4.72
2023-06-14T16:56:29.574Z,5.32
2023-06-14T16:58:59.686Z,4.78
2023-06-14T17:01:28.880Z,4.53
2023-06-14T17:03:57.624Z,3.45
2023-06-14T17:06:26.601Z,4.70
2023-06-14T17:08:55.250Z,4.25
2023-06-14T17:11:24.605Z,4.22
2023-06-14T17:13:53.910Z,4.38
2023-06-14T17:16:23.237Z,4.18
2023-06-14T17:18:52.848Z,3.58
2023-06-14T17:21:21.604Z,3.90
2023-06-14T17:23:50.238Z,4.90
2023-06-14T17:26:19.271Z,4.38
2023-06-14T17:28:47.906Z,4.25
2023-06-14T17:31:17.057Z,4.57
2023-06-14T17:33:45.840Z,5.38
2023-06-14T17:36:14.700Z,5.57
2023-06-14T17:38:43.401Z,5.15
2023-06-14T17:41:12.259Z,4.60
2023-06-14T17:43:40.980Z,8.52
2023-06-14T17:46:10.185Z,4.95
2023-06-14T17:48:38.836Z,3.90
2023-06-14T17:51:08.594Z,4.30
2023-06-14T17:53:37.312Z,3.80
2023-06-14T17:56:06.443Z,4.20
2023-06-14T17:58:35.542Z,5.03
2023-06-14T18:01:04.664Z,5.25
2023-06-14T18:03:33.460Z,5.93
2023-06-14T18:06:02.694Z,5.22
2023-06-14T18:08:31.487Z,5.70
2023-06-14T18:11:00.230Z,4.82
2023-06-14T18:13:28.893Z,5.07
2023-06-14T18:15:57.811Z,4.85
2023-06-14T18:18:26.529Z,6.03
2023-06-14T18:20:55.346Z,4.43
2023-06-14T18:23:23.977Z,4.53
2023-06-14T18:25:52.830Z,4.88
2023-06-14T18:28:21.656Z,4.70
2023-06-14T18:30:50.767Z,5.75
2023-06-14T18:33:19.343Z,5.43
2023-06-14T18:35:48.103Z,4.75
2023-06-14T18:38:16.953Z,4.97
2023-06-14T18:40:45.877Z,4.80
2023-06-14T18:43:14.431Z,4.53
2023-06-14T18:45:43.268Z,4.65
2023-06-14T18:48:13.931Z,5.63
2023-06-14T18:50:42.808Z,3.80
2023-06-14T18:53:13.904Z,4.07
2023-06-14T18:55:45.592Z,3.20
2023-06-14T18:58:14.753Z,3.60
2023-06-14T19:00:43.416Z,3.55
2023-06-14T19:03:12.501Z,3.28
2023-06-14T19:05:41.821Z,3.42
2023-06-14T19:08:14.089Z,3.83
2023-06-14T19:13:12.966Z,3.50
2023-06-14T19:15:41.952Z,3.47
2023-06-14T19:18:12.787Z,2.60
2023-06-14T19:20:41.691Z,3.13
2023-06-14T19:23:10.362Z,2.80
2023-06-14T19:25:39.329Z,2.90
2023-06-14T19:28:08.091Z,3.38
2023-06-14T19:30:38.052Z,2.90
2023-06-14T19:33:06.880Z,2.80
2023-06-14T19:35:35.719Z,2.92
2023-06-14T19:38:04.551Z,2.85
2023-06-14T19:40:34.056Z,2.20
2023-06-14T19:43:02.643Z,3.40
2023-06-14T19:45:33.872Z,3.30
2023-06-14T19:48:11.333Z,2.75
2023-06-14T19:50:48.448Z,3.28
2023-06-14T19:53:17.681Z,3.28
2023-06-14T19:55:46.846Z,3.50
2023-06-14T19:58:15.564Z,4.25
2023-06-14T20:00:44.532Z,3.60
2023-06-14T20:03:14.593Z,3.53
2023-06-14T20:05:47.491Z,3.58
2023-06-14T20:08:22.853Z,4.18
2023-06-14T20:10:55.161Z,3.35
2023-06-14T20:13:25.217Z,3.50
2023-06-14T20:15:57.909Z,3.95
2023-06-14T20:18:28.415Z,3.67
2023-06-14T20:20:58.735Z,4.32
2023-06-14T20:23:28.946Z,4.25
2023-06-14T20:25:58.863Z,4.00
2023-06-14T20:28:28.509Z,4.25
2023-06-14T20:30:59.113Z,5.10
2023-06-14T20:33:29.830Z,4.25
2023-06-14T20:35:59.639Z,6.50
2023-06-14T20:38:29.809Z,5.75
2023-06-14T20:40:59.885Z,6.07
2023-06-14T20:43:30.575Z,6.57
2023-06-14T20:46:00.419Z,6.85
2023-06-14T20:48:31.620Z,11.18
2023-06-14T20:51:01.955Z,5.05
2023-06-14T20:53:32.690Z,4.82
2023-06-14T20:56:03.040Z,10.73
2023-06-14T20:58:33.222Z,14.82
2023-06-14T21:01:03.999Z,13.27
2023-06-14T21:03:34.724Z,19.23
2023-06-14T21:06:07.890Z,13.73
2023-06-14T21:08:38.978Z,15.50
2023-06-14T21:11:09.704Z,21.98
2023-06-14T21:13:39.616Z,15.75
2023-06-14T21:16:09.262Z,11.98
2023-06-14T21:18:39.451Z,11.02
2023-06-14T21:21:09.317Z,11.20
2023-06-14T21:23:39.325Z,10.68
2023-06-14T21:26:09.461Z,11.07
2023-06-14T21:28:40.188Z,7.88
2023-06-14T21:31:11.284Z,7.18
2023-06-14T21:33:41.078Z,5.83
2023-06-14T21:36:13.465Z,6.30
2023-06-14T21:38:43.830Z,6.82
2023-06-14T21:41:14.625Z,7.00
2023-06-14T21:43:44.919Z,7.18
2023-06-14T21:46:15.090Z,5.90
2023-06-14T21:48:45.080Z,5.70
2023-06-14T21:51:14.960Z,5.72
2023-06-14T21:53:49.873Z,6.80
2023-06-14T21:56:20.998Z,5.05
2023-06-14T21:58:51.418Z,5.40
2023-06-14T22:01:21.340Z,5.50
2023-06-14T22:03:51.574Z,6.75
2023-06-14T22:06:21.859Z,7.30
2023-06-14T22:08:52.140Z,5.72
2023-06-14T22:11:23.430Z,5.38
2023-06-14T22:13:54.414Z,5.28
2023-06-14T22:16:27.702Z,6.18
2023-06-14T22:19:00.493Z,8.65
2023-06-14T22:21:31.311Z,7.80
2023-06-14T22:24:02.827Z,7.15
2023-06-14T22:26:40.331Z,5.60
2023-06-14T22:29:09.997Z,5.07
2023-06-14T22:31:38.746Z,5.63
2023-06-14T22:34:09.394Z,4.40
2023-06-14T22:36:39.648Z,4.82
2023-06-14T22:39:10.170Z,4.70
2023-06-14T22:41:39.530Z,4.90
2023-06-14T22:44:08.547Z,4.25
2023-06-14T22:46:37.865Z,5.53
2023-06-14T22:49:07.961Z,7.10
2023-06-14T22:51:37.862Z,4.57
2023-06-14T22:54:07.667Z,4.65
2023-06-14T22:56:36.897Z,6.43
2023-06-14T22:59:05.789Z,10.27
2023-06-14T23:01:34.925Z,5.07
2023-06-14T23:04:04.498Z,5.00
2023-06-14T23:06:35.498Z,5.72
2023-06-14T23:09:06.390Z,5.68
2023-06-14T23:11:35.308Z,6.18
2023-06-14T23:14:04.021Z,6.07
2023-06-14T23:16:33.300Z,4.90
2023-06-14T23:19:02.000Z,5.78
2023-06-14T23:21:31.764Z,5.18
2023-06-14T23:24:00.639Z,5.47
2023-06-14T23:26:30.059Z,4.55
2023-06-14T23:28:59.069Z,5.03
2023-06-14T23:31:28.161Z,5.20
2023-06-14T23:33:57.380Z,5.35
2023-06-14T23:36:32.480Z,5.57
2023-06-14T23:39:05.254Z,5.55
2023-06-14T23:41:34.388Z,6.43
2023-06-14T23:44:03.309Z,5.93
2023-06-14T23:46:33.076Z,5.50
2023-06-14T23:49:03.000Z,4.93
2023-06-14T23:51:32.708Z,5.93
2023-06-14T23:54:01.942Z,6.75
2023-06-14T23:56:33.635Z,6.85
2023-06-14T23:59:02.718Z,7.73
